Terminal Aerodrome Forecast
Issued by NWS Omaha/Valley, NE

Home | Current Version | Previous Version | Text Only | Print | Product List | Glossary On
Versions: 1 2 3 4 5 6 7 8 9 10 11 12 13 14 15 16 17 18 19 20 21 22 23 24 25 26 27 28 29 30 31 32 33 34 35 36 37 38 39 40
407
FTUS43 KOAX 240903 AAB
TAFLNK
TAF AMD
KLNK 240903Z 2409/2506 01015G24KT 3SM -SN OVC008
     FM241100 35017G25KT 1 1/2SM -SN OVC008
     FM241900 34019G25KT 3SM -SN OVC015
     FM242200 34016G24KT P6SM OVC015
     FM250100 33013KT P6SM SCT035=

USA.gov is the U.S. government's official web portal to all federal, state and local government web resources and services.